METAR Data
IDs: Format: Raw Decoded Include TAF

Data at: 0622 UTC 19 Aug 2019

KARG 190556Z AUTO 16004KT 10SM CLR 23/22 A2997 RMK AO2 SLP147 60000 T02280217 10267 20228 403440222 50002
KARG 190456Z AUTO 18005KT 10SM CLR 23/22 A2998 RMK AO2 SLP151 T02330217
KARG 190356Z AUTO 14010KT 10SM BKN100 24/22 A2998 RMK AO2 SLP151 T02390222
KARG 190256Z AUTO 16011KT 10SM FEW032 BKN042 BKN049 26/22 A2996 RMK AO2 LTG DSNT S SLP145 60000 T02560222 50015
KARG 190251Z AUTO 15010KT 10SM FEW032 BKN042 BKN049 26/22 A2996 RMK AO2 LTG DSNT S
KARG 190243Z AUTO 15008KT 1SM HZ SCT032 BKN044 BKN065 26/23 A2996 RMK AO2 LTG DSNT SE AND S RVRNO
KARG 190230Z AUTO 11006KT 7SM OVC030 26/23 A2996 RMK AO2 LTG DSNT SE AND S
KARG 190220Z AUTO 14005KT 1/2SM HZ BKN030 26/22 A2996 RMK AO2 LTG DSNT SE AND S RVRNO
KARG 190156Z AUTO 12004KT 10SM SCT032 BKN042 24/22 A2993 RMK AO2 LTG DSNT S RAB17E28 SLP134 P0000 T02440222
KARG 190056Z AUTO 07008KT 10SM CLR 24/23 A2992 RMK AO2 LTG DSNT E-S TSE27 SLP129 T02440228
KARG 190033Z AUTO 04006KT 10SM CLR 25/23 A2992 RMK AO2 LTG DSNT ALQDS TSE27
KARG 182356Z AUTO 03008KT 10SM VCTS SCT095 27/23 A2991 RMK AO2 LTG DSNT NW-E TSE2258B10E37B51 SLP128 60060 T02670228 10344 20228 53008
KARG 182343Z AUTO 04006KT 10SM SCT090 27/24 A2992 RMK AO2 LTG DSNT NW-NE TSE2258B10E37
KARG 182316Z AUTO 13005KT 8SM VCTS SCT095 29/24 A2990 RMK AO2 LTG DSNT NW-NE TSE2258B10
KARG 182304Z AUTO 10SM FEW095 28/24 A2990 RMK AO2 LTG DSNT NW-E TSE2258 $
KARG 182256Z AUTO 11008KT 9SM VCTS CLR 28/24 A2989 RMK AO2 LTG DSNT ALQDS TSE07B44RAE16 SLP119 P0001 T02830239
KARG 182213Z AUTO 10011KT 10SM -RA FEW036 BKN065 OVC110 26/23 A2988 RMK AO2 LTG DSNT ALQDS TSE07 P0001
KARG 182156Z AUTO 09009KT 10SM TSRA FEW012 BKN040 OVC070 24/23 A2989 RMK AO2 PK WND 34030/2108 WSHFT 2053 LTG DSNT ALQDS RAB01 SLP120 P0059 T02440228
KARG 182143Z AUTO 05009KT 5SM +TSRA BR FEW012 BKN034 OVC049 24/23 A2989 RMK AO2 PK WND 34030/2108 WSHFT 2053 LTG DSNT NE AND E RAB01 P0055
KARG 182133Z AUTO 35013G23KT 1 1/2SM +TSRA BR FEW009 SCT023 OVC032 23/22 A2992 RMK AO2 PK WND 34030/2108 WSHFT 2053 VIS 1/2V5 LTG DSNT NE AND E RAB01 P0042
KARG 182113Z AUTO 34020G30KT 8SM -TSRA OVC034 24/22 A2990 RMK AO2 PK WND 34030/2108 WSHFT 2053 LTG DSNT N-E RAB01 PRESRR P0001
KARG 182056Z AUTO 02013G20KT 7SM TS BKN038 OVC045 31/23 A2989 RMK AO2 LTG DSNT NW-E TSB07 SLP119 T03060233 55009
KARG 182013Z AUTO 21011KT 10SM VCTS FEW043 34/26 A2987 RMK AO2 LTG DSNT ALQDS TSB07
KARG 181956Z AUTO 19012KT 10SM SCT043 34/26 A2988 RMK AO2 LTG DSNT NW-NE SLP115 T03390256
KARG 181856Z AUTO 19014KT 10SM FEW035 34/26 A2989 RMK AO2 LTG DSNT NW SLP120 T03440261
KARG 181756Z AUTO 21010KT 10SM SCT033 33/25 A2992 RMK AO2 SLP128 T03330250 10333 20228 56011
KARG 181656Z AUTO 24011KT 10SM CLR 33/24 A2993 RMK AO2 SLP134 T03280244
KARG 181556Z AUTO 17011KT 10SM CLR 31/25 A2993 RMK AO2 SLP132 T03110250
KARG 181456Z AUTO 19007KT 10SM CLR 29/24 A2995 RMK AO2 SLP140 T02890239 51010
KARG 181356Z AUTO 18007KT 10SM CLR 27/23 A2994 RMK AO2 SLP137 T02670233
KARG 181256Z AUTO 17007KT 10SM CLR 24/23 A2993 RMK AO2 SLP134 T02440228
KARG 181156Z AUTO 18003KT 10SM CLR 23/22 A2992 RMK AO2 SLP130 6//// 7//// T02280217 10256 20222 51007
KARG 181056Z AUTO 16003KT 10SM CLR 23/22 A2991 RMK AO2 SLP129 T02280217
KARG 180956Z AUTO 20003KT 10SM CLR 23/22 A2991 RMK AO2 SLP125 T02330217
KARG 180856Z AUTO 22006KT 24/22 A2990 RMK AO2 SLP123 6//// T02390222 55003 RVRNO
KARG 180756Z AUTO 18007KT 10SM CLR 24/22 A2989 RMK AO2 SLP119 T02390222
KARG 180656Z AUTO 16005KT 10SM CLR 24/22 A2990 RMK AO2 SLP123 T02440222
KARG 180556Z AUTO 16007KT 10SM CLR 26/22 A2991 RMK AO2 SLP125 T02560222 10311 20250 403440222 50000
KARG 180456Z AUTO 15007KT 10SM CLR 26/23 A2991 RMK AO2 SLP129 T02560228
KARG 180356Z AUTO 16007KT 10SM CLR 26/23 A2992 RMK AO2 SLP129 T02560228
KARG 180256Z AUTO 15007KT 10SM CLR 27/23 A2991 RMK AO2 SLP126 T02670233 53007
KARG 180156Z AUTO 16006KT 10SM CLR 28/24 A2989 RMK AO2 SLP122 T02780239
KARG 180056Z AUTO 17006KT 10SM CLR 28/24 A2988 RMK AO2 SLP116 T02830239
KARG 172356Z AUTO 18009KT 10SM CLR 31/23 A2989 RMK AO2 SLP119 T03110233 10344 20311 55001
KARG 172256Z AUTO 17011KT 10SM CLR 33/24 A2988 RMK AO2 SLP118 T03280239
KARG 172156Z AUTO 16011KT 10SM CLR 34/23 A2989 RMK AO2 SLP120 T03390228
KARG 172056Z AUTO 19009KT 10SM CLR 34/25 A2989 RMK AO2 SLP120 T03390250 56022
KARG 171956Z AUTO 18011KT 10SM CLR 33/25 A2991 RMK AO2 SLP125 T03330250
KARG 171856Z AUTO 20007KT 10SM FEW046 34/24 A2992 RMK AO2 SLP130 T03390239